Terminal Aerodrome Forecast
Issued by NWS Charleston, WV

Current Version | Previous Version | Text Only | Print | Product List | Glossary Off
Versions: 1 2 3 4 5 6 7 8 9 10 11 12 13 14 15 16 17 18 19 20 21 22 23 24 25 26 27

000
FTUS41 KRLX 040711 AAA
TAFEKN
TAF AMD
KEKN 040711Z 0407/0506 25016G22KT P6SM BKN060
     FM040800 27010G17KT P6SM BKN035
     FM041000 00000KT 3SM BR BKN015
     FM041300 VRB03KT 3SM BR HZ BKN010
     FM041500 27005KT P6SM BKN015
     FM041600 27006KT P6SM SCT025
     FM050000 00000KT P6SM SCT060
     FM050500 00000KT 6SM BR SCT040=

USA.gov is the U.S. government's official web portal to all federal, state and local government web resources and services.